createdAt,value
2018-09-27T00:01:14.201Z,48.88
2018-09-27T00:06:17.659Z,49.10
2018-09-27T00:11:21.118Z,49.11
2018-09-27T00:16:24.568Z,49.21
2018-09-27T00:21:28.041Z,49.36
2018-09-27T00:26:31.483Z,49.63
2018-09-27T00:31:34.949Z,49.41
2018-09-27T00:36:38.412Z,49.65
2018-09-27T00:41:41.928Z,49.85
2018-09-27T00:46:45.365Z,50.05
2018-09-27T00:51:48.817Z,50.47
2018-09-27T00:56:52.269Z,50.52
2018-09-27T01:01:55.735Z,51.15
2018-09-27T01:06:59.279Z,50.96
2018-09-27T01:12:02.758Z,51.27
2018-09-27T01:17:06.270Z,51.70
2018-09-27T01:22:09.736Z,51.39
2018-09-27T01:27:13.200Z,52.19
2018-09-27T01:32:16.663Z,52.12
2018-09-27T01:37:20.142Z,52.36
2018-09-27T01:42:23.630Z,51.90
2018-09-27T01:47:27.153Z,52.31
2018-09-27T01:52:30.671Z,52.49
2018-09-27T01:57:34.199Z,52.68
2018-09-27T02:02:37.753Z,53.25
2018-09-27T02:07:41.275Z,53.28
2018-09-27T02:12:44.756Z,53.38
2018-09-27T02:17:48.332Z,53.58
2018-09-27T02:22:52.515Z,53.65
2018-09-27T02:27:56.061Z,53.79
2018-09-27T02:32:59.589Z,53.75
2018-09-27T02:38:03.057Z,54.02
2018-09-27T02:43:06.556Z,53.84
2018-09-27T02:48:10.018Z,54.00
2018-09-27T02:53:13.458Z,53.77
2018-09-27T02:58:16.948Z,54.19
2018-09-27T03:03:20.444Z,53.53
2018-09-27T03:08:23.893Z,54.18
2018-09-27T03:13:27.342Z,53.77
2018-09-27T03:18:30.822Z,54.40
2018-09-27T03:23:34.313Z,54.14
2018-09-27T03:28:37.788Z,54.44
2018-09-27T03:33:41.226Z,54.74
2018-09-27T03:38:44.688Z,54.91
2018-09-27T03:43:48.141Z,54.34
2018-09-27T03:48:51.614Z,54.88
2018-09-27T03:53:55.058Z,54.79
2018-09-27T03:58:59.897Z,54.46
2018-09-27T04:04:03.600Z,55.08
2018-09-27T04:09:08.592Z,54.62
2018-09-27T04:14:12.083Z,55.20
2018-09-27T04:19:15.564Z,54.50
2018-09-27T04:24:19.013Z,54.52
2018-09-27T04:29:22.618Z,53.83
2018-09-27T04:34:26.143Z,53.63
2018-09-27T04:39:29.716Z,53.75
2018-09-27T04:44:33.212Z,53.58
2018-09-27T04:49:36.682Z,53.54
2018-09-27T04:54:40.234Z,53.41
2018-09-27T04:59:43.696Z,53.12
2018-09-27T05:04:47.215Z,53.50
2018-09-27T05:09:50.731Z,53.28
2018-09-27T05:14:54.201Z,52.92
2018-09-27T05:19:57.774Z,53.12
2018-09-27T05:25:01.235Z,52.90
2018-09-27T05:30:05.018Z,52.82
2018-09-27T05:35:08.512Z,53.09
2018-09-27T05:40:11.994Z,52.96
2018-09-27T05:45:15.488Z,53.04
2018-09-27T05:50:19.009Z,52.74
2018-09-27T05:55:23.011Z,53.23
2018-09-27T06:00:26.809Z,53.01
2018-09-27T06:05:30.315Z,52.82
2018-09-27T06:10:33.744Z,53.05
2018-09-27T06:15:37.518Z,53.09
2018-09-27T06:20:40.974Z,53.10
2018-09-27T06:25:44.460Z,53.00
2018-09-27T06:30:47.930Z,52.75
2018-09-27T06:35:51.407Z,41.68
2018-09-27T06:40:54.858Z,41.72
2018-09-27T06:45:58.293Z,42.94
2018-09-27T06:51:01.824Z,43.35
2018-09-27T06:56:05.470Z,43.51
2018-09-27T07:01:08.881Z,44.13
2018-09-27T07:06:12.316Z,45.33
2018-09-27T07:11:15.762Z,46.03
2018-09-27T07:16:19.252Z,45.66
2018-09-27T07:21:22.693Z,46.14
2018-09-27T07:26:26.168Z,46.37
2018-09-27T07:31:29.621Z,46.67
2018-09-27T07:36:33.176Z,46.99
2018-09-27T07:41:36.647Z,46.68
2018-09-27T07:46:40.180Z,46.96
2018-09-27T07:51:43.629Z,47.40
2018-09-27T07:56:47.072Z,47.45
2018-09-27T08:02:02.726Z,47.55
2018-09-27T08:07:06.634Z,47.62
2018-09-27T08:12:10.077Z,51.27
2018-09-27T08:17:13.543Z,52.33
2018-09-27T08:22:16.989Z,54.19
2018-09-27T08:27:20.425Z,55.28
2018-09-27T08:32:23.879Z,56.24
2018-09-27T08:37:27.637Z,57.25
2018-09-27T08:42:31.277Z,56.00
2018-09-27T08:47:34.730Z,55.49
2018-09-27T08:52:38.209Z,55.21
2018-09-27T08:57:42.597Z,54.21
2018-09-27T09:02:46.099Z,53.87
2018-09-27T09:07:49.536Z,53.95
2018-09-27T09:12:53.222Z,53.56
2018-09-27T09:17:56.661Z,53.56
2018-09-27T09:23:00.131Z,53.71
2018-09-27T09:28:04.336Z,54.27
2018-09-27T09:33:07.765Z,55.13
2018-09-27T09:38:11.216Z,54.85
2018-09-27T09:43:14.637Z,55.40
2018-09-27T09:48:18.155Z,55.58
2018-09-27T09:53:21.642Z,55.06
2018-09-27T09:58:25.078Z,55.08
2018-09-27T10:03:28.497Z,54.88
2018-09-27T10:08:31.940Z,54.92
2018-09-27T10:13:35.400Z,54.87
2018-09-27T10:18:38.839Z,54.78
2018-09-27T10:23:42.293Z,54.65
2018-09-27T10:28:45.693Z,54.54
2018-09-27T10:33:49.105Z,54.83
2018-09-27T10:38:52.533Z,54.60
2018-09-27T10:43:55.948Z,54.64
2018-09-27T10:48:59.384Z,54.57
2018-09-27T10:54:02.805Z,54.43
2018-09-27T10:59:06.363Z,55.38
2018-09-27T11:04:09.838Z,55.14
2018-09-27T11:09:13.229Z,55.27
2018-09-27T11:14:16.657Z,55.71
2018-09-27T11:19:20.144Z,55.70
2018-09-27T11:24:23.564Z,55.70
2018-09-27T11:29:32.193Z,55.74
2018-09-27T11:34:35.625Z,55.80
2018-09-27T11:39:39.050Z,55.80
2018-09-27T11:44:42.469Z,56.01
2018-09-27T11:49:46.065Z,56.07
2018-09-27T11:54:49.357Z,56.19
2018-09-27T11:59:52.925Z,56.22
2018-09-27T12:04:56.364Z,56.34
2018-09-27T12:09:59.840Z,56.72
2018-09-27T12:20:41.295Z,56.46
2018-09-27T12:25:44.804Z,56.37
2018-09-27T12:30:48.872Z,56.48
2018-09-27T12:35:52.281Z,56.38
2018-09-27T12:40:55.784Z,56.65
2018-09-27T12:45:59.266Z,56.26
2018-09-27T12:51:02.754Z,57.02
2018-09-27T12:56:06.402Z,56.68
2018-09-27T13:01:10.139Z,56.55
2018-09-27T13:06:13.596Z,56.48
2018-09-27T13:11:17.088Z,57.02
2018-09-27T13:16:20.514Z,57.24
2018-09-27T13:21:24.008Z,57.15
2018-09-27T13:26:27.437Z,57.70
2018-09-27T13:31:30.877Z,57.82
2018-09-27T13:36:34.363Z,57.93
2018-09-27T13:41:38.871Z,57.85
2018-09-27T13:46:42.317Z,57.80
2018-09-27T13:51:45.777Z,57.34
2018-09-27T13:56:49.290Z,57.05
2018-09-27T14:01:52.784Z,57.07
2018-09-27T14:06:56.209Z,57.31
2018-09-27T14:11:59.649Z,57.11
2018-09-27T14:17:03.143Z,57.08
2018-09-27T14:22:06.537Z,57.59
2018-09-27T14:27:09.991Z,57.24
2018-09-27T15:05:58.554Z,58.14
2018-09-27T15:11:01.998Z,57.80
2018-09-27T15:16:05.579Z,58.00
2018-09-27T15:21:09.141Z,57.69
2018-09-27T15:26:13.465Z,57.66
2018-09-27T15:31:16.954Z,57.47
2018-09-27T15:36:20.467Z,57.35
2018-09-27T15:41:23.981Z,57.82
2018-09-27T15:46:27.483Z,57.76
2018-09-27T15:51:31.039Z,57.62
2018-09-27T15:56:34.457Z,57.55
2018-09-27T16:01:37.938Z,59.04
2018-09-27T16:06:41.433Z,59.26
2018-09-27T16:11:44.975Z,60.25
2018-09-27T16:16:48.412Z,63.53
2018-09-27T16:21:51.871Z,64.33
2018-09-27T16:26:55.373Z,64.53
2018-09-27T16:31:58.836Z,63.90
2018-09-27T16:37:02.350Z,62.87
2018-09-27T16:42:05.864Z,63.18
2018-09-27T16:47:09.313Z,62.92
2018-09-27T16:52:12.750Z,62.79
2018-09-27T16:57:16.207Z,62.15
2018-09-27T17:02:19.612Z,62.34
2018-09-27T17:07:23.042Z,61.66
2018-09-27T17:12:26.476Z,61.50
2018-09-27T17:17:29.935Z,61.51
2018-09-27T17:22:33.430Z,61.12
2018-09-27T17:27:36.836Z,60.79
2018-09-27T17:32:43.605Z,61.13
2018-09-27T17:37:50.478Z,61.15
2018-09-27T17:42:53.985Z,60.98
2018-09-27T17:47:57.474Z,60.49
2018-09-27T17:53:01.018Z,60.58
2018-09-27T17:58:04.465Z,60.42
2018-09-27T18:03:07.907Z,60.71
2018-09-27T18:08:11.367Z,60.51
2018-09-27T18:13:14.898Z,60.11
2018-09-27T18:18:18.382Z,60.26
2018-09-27T18:23:21.834Z,60.14
2018-09-27T18:28:25.254Z,60.05
2018-09-27T18:33:28.697Z,59.88
2018-09-27T18:38:32.166Z,59.93
2018-09-27T18:43:35.697Z,59.38
2018-09-27T18:48:39.121Z,59.08
2018-09-27T18:53:42.564Z,59.10
2018-09-27T18:58:46.184Z,58.33
2018-09-27T19:03:49.697Z,58.24
2018-09-27T19:08:53.200Z,58.13
2018-09-27T19:13:56.678Z,57.87
2018-09-27T19:19:00.220Z,57.50
2018-09-27T19:24:03.725Z,57.36
2018-09-27T19:29:07.253Z,57.03
2018-09-27T19:34:10.811Z,56.96
2018-09-27T19:39:20.119Z,56.28
2018-09-27T19:44:23.675Z,56.24
2018-09-27T19:49:27.166Z,55.89
2018-09-27T19:54:30.942Z,55.65
2018-09-27T19:59:34.417Z,55.60
2018-09-27T20:04:38.327Z,55.34
2018-09-27T20:09:41.761Z,55.10
2018-09-27T20:14:45.169Z,54.05
2018-09-27T20:19:48.577Z,53.84
2018-09-27T20:24:52.017Z,54.13
2018-09-27T20:29:55.481Z,53.82
2018-09-27T20:34:58.974Z,53.97
2018-09-27T20:40:02.373Z,53.16
2018-09-27T20:45:07.285Z,52.89
2018-09-27T20:50:10.710Z,52.37
2018-09-27T20:55:14.118Z,52.19
2018-09-27T21:00:17.577Z,51.87
2018-09-27T21:05:21.034Z,51.23
2018-09-27T21:10:24.450Z,51.52
2018-09-27T21:15:27.869Z,50.59
2018-09-27T21:20:31.378Z,50.86
2018-09-27T21:25:34.829Z,50.23
2018-09-27T21:30:38.305Z,50.12
2018-09-27T21:35:41.776Z,49.91
2018-09-27T21:40:45.256Z,49.22
2018-09-27T21:45:48.767Z,48.88
2018-09-27T21:50:52.212Z,48.69
2018-09-27T21:55:55.636Z,48.23
2018-09-27T22:00:59.073Z,48.21
2018-09-27T22:06:02.552Z,47.20
2018-09-27T22:11:05.999Z,47.69
2018-09-27T22:16:09.472Z,47.54
2018-09-27T22:21:12.933Z,47.30
2018-09-27T22:26:16.356Z,46.76
2018-09-27T22:31:19.796Z,46.92
2018-09-27T22:36:23.273Z,46.05
2018-09-27T22:41:26.706Z,46.34
2018-09-27T22:46:30.401Z,45.72
2018-09-27T22:51:33.926Z,45.57
2018-09-27T22:56:37.394Z,46.06
2018-09-27T23:01:40.817Z,45.80
2018-09-27T23:06:44.293Z,45.66
2018-09-27T23:11:47.718Z,45.20
2018-09-27T23:16:51.169Z,45.26
2018-09-27T23:21:54.612Z,45.13
2018-09-27T23:26:58.038Z,45.08
2018-09-27T23:32:01.452Z,45.27
2018-09-27T23:37:04.872Z,44.54
2018-09-27T23:42:08.298Z,44.75
2018-09-27T23:47:11.732Z,44.86
2018-09-27T23:52:15.164Z,44.92
2018-09-27T23:57:18.604Z,44.66
